Pagina principală
METAR-TAF:

METAR-TAF

Aeroporturi :

Biak, Indonezia

Latitudine: 01-11S, longitudine: 136-07E, elevație: 11 m

METAR: lipsă

Ora: 07:40 (00:40 UTC)

Prognoză

Raportul a fost făcut în urmă cu 1 oră și 40 de minute, la 23:00 UTC
Prognoză valabilă de la 23 ora 00 UTC la 24 ora 06 UTC
Vânt 5 kt de la Vest
Vizibilitate de 10 km sau mai mult
Nori împrăștiați la o înălțime de 1800 picior
Probabilitate 40% :
Temporar
de la 23 ora 02 UTC la 23 ora 06 UTC
Vizibilitate: 5000 m
Nori puțini la o înălțime de 1700 picior, Cumulonimbus.
ploaie
Devenind
de la 23 ora 10 UTC la 23 ora 12 UTC
Vânt 5 kt de la Nord/Nord-vest

TAF: WABB 222300Z 2300/2406 27005KT 9999 SCT018 PROB40 TEMPO 2302/2306 5000 RA FEW017CB BECMG 2310/2312 33005KT

Observații și prognoze meteo pentru peste 4.000 de aeroporturi (rapoarte METAR și TAF).

Stațiile disponibile sunt reprezentate pe hartă prin puncte galbene și roșii.

Țineți indicatorul mouse-ului pe punctul dorit pentru a vedea denumirea stației.

Apoi, faceți clic pentru a vedea observațiile și prognozele meteorologice.

Pentru a schimba harta: Pentru mărire, faceți clic pe butoanele verzi cu cruce neagră; pentru micșorare, pe butonul verde cu o liniuță; pentru hărți învecinate, pe săgețile verzi.


METAR-TAF: